Faktúry za rok 2015

január február marec apríl máj jún júl august september október november december

Por. č. Dátum doručenia Názov a adresa dodávateľa IČO Popis plnenia Suma bez DPH Suma s DPH Č. OBJ
674 1.6.15 VEIDEC SK s.r.o. 36421162 mazadlá 307,92 369,50 9769
675 1.6.15 LDM Bratislava, s.r.o. 31381685 oprava 570,00 684,00 9753
676 1.6.15 TECHNIK-stavba a bývanie s.r.o. 47531711 rohož 293,64 352,37 9760
677 1.6.15 TECHNIK-stavba a bývanie s.r.o. 47531711 žľaby, rúry 107,98 129,58 9762
678 1.6.15 EPO, s.r.o. 652598 materiál+ ND 305,81 366,97 9756
679 1.6.15 DC Concept Slovensko,s.r.o 35884959 licenčný poplatok   0,00  
680 2.6.15 Murka, s.r.o. 45582556 vysialačka 128,10 153,72 9770
681 2.6.15 Ulianko a Partners, s.r.o. 36856517 služby 1500,00 1800,00 9449
682 2.6.15 Vladimír Boroš 17259541 skúška EPS 1480,00 1776,00 9732
683 2.6.15 Beličková, s.r.o. 45902836 potreby na maľovanie 111,36 133,63 9705
684 3.6.15 Xepap, spol. s.r.o. 31628605 páska DYMO 110,86 133,03 9765
685 3.6.15 Poradca podnilkateľa s.r.o. 31592503 pracovné právo 78,05 93,66  
686 3.6.15 TBG Doprastav, a.s. 36283801 čerpadlo - služba 276,82 332,18 9734
687 3.6.15 TBG Doprastav, a.s. 36283801 betón 392,00 470,40 9734
688 3.6.15 Stredosl.vod.prev.spol.,a.s. 36644030 voda 339,30 407,16 9450
689 3.6.15 D.K.C., s.r.o. 31571727 nafta 965,99 1159,19 9694
690 4.6.15 Weby group 36046884 služby 37,50 45,00  
691 4.6.15 NCH SLOVAKIA s.r.o. 34096043 chémia 4598,89 5518,67 9766
692 4.6.15 Peron slovakia, s.r.o. 45347352 čistenie a pranie 55,73 66,88 9458
693 4.6.15 SEPO spol. s.r.o. 31605931 kontrola vodovodov 1300,00 1560,00 9618
694 4.6.15 EPO, s.r.o. 652598 materiál + ND 270,10 324,12 9768
695 4.6.15 SK - Spin, s.r.o. 44536551 nájomné 63,07 79,67 9558
696 4.6.15 SOMI Systems, a.s. 36041432 revízia 550,00 660,00 9617
697 4.6.15 Bučina DDD, spol. s.r.o. 36059323 stály mesačný poplatok 1435,60 1722,72  
698 4.6.15 ABB, s.r.o. 31389325 servis 680,00 816,00 9478
699 4.6.15 IS-Mirage, s.r.o. 44966946 strázna služba 5431,20 6517,44  
700 4.6.15 VUJE, a.s. 31450474 školenie manipulantov 1507,72 1808,21  
701 4.6.15 Xepap, spol. s.r.o. 31628605 páska DYMO -28,74 -34,49  
702 4.6.15 GALAXIA s.r.o. 36022284 obedy 1082,50 1299,00  
703 4.6.15 Sloso Peter Slosiarik 37059009 autoslužby +ND 60,00 72,00  
704 8.6.15 RAR SK, s.r.o. 47448768 infotabuľky 49,50 69,10 9781
705 8.6.15 Orange Slovensko 35697270 hovory 566,08 706,70  
706 8.6.15 Gibala, s.r.o. 43895247 preskúšanie OOPP 396,00 475,20 9749
707 8.6.15 ŽS Cargo Slovakia a.s. 35914921 vlečka 624,00 748,80  
708 8.6.15 A-Z lokomat s.r.o. 31617034 štiepka 2562,33 3074,80  
709 8.6.15 A-Z lokomat s.r.o. 31617034 štiepka 69150,49 82980,59  
710 8.6.15 excell, a.s. 35804629 poradenské služby 2590,00 3108,00  
711 8.6.15 EBA, s.r.o. 31376134 ropstop 31,60 37,92 9707
712 8.6.15 EBA, s.r.o. 31376134 filtračné materiály 213,41 256,09 9715
713 8.6.15 SIGMA SLOVAKIA spol. s r.o. 36527980 ložiská 1997,50 2397,00 9540
714 8.6.15 Svhp, š.p. 2204703 povrchová voda 4632,18 5558,62  
715 8.6.15 Svhp, š.p. 2204703 hydroenergetický pot. 1613,63 1936,36  
716 8.6.15 ProCare, a.s. 35890568 zdravotná služba 753,30 813,56  
717 8.6.15 STEFE Zvolen s.r.o. 31612300 služba 12500,00 15000,00  
718 8.6.15 Marius Pedersen 34115901 odvoz odpadu 268,78 317,57  
719 8.6.15 Xepap, spol. s.r.o. 31628605 páska DYMO 28,74 34,49  
720 8.6.15 Linde Gas k.s 31373861 co2 22,61 27,13  
721 8.6.15 Linde Gas k.s 31373861 nájomné 325,41 390,49  
722 8.6.15 MICROWELL, spol. s.r.o. 31414249 nivocap 855,00 1026,00 9730
723 8.6.15 Čas Energo Plus, s.r.o. 36034207 drevné štiepky 47067,53 56481,04  
724 8.6.15 Slovwood Ružomberok , a.s 36406317 štiepka 18669,77 22403,72  
725 8.6.15 Brutto, s.r.o. 44533870 výmena snímača váhy 430,90 517,08 9739
726 8.6.15 SSE - Distribúcia, a.s. 36442151 ee -363,00 -363,00  
727 8.6.15 SSE - Distribúcia, a.s. 36442151 ee 1193,79 1193,79  
728 8.6.15 Slovak Telekom, a.s. 35763469 hovory 249,03 298,84  
729 8.6.15 OMV, s.r.o. 604381 phm 445,18 534,22  
730 8.6.15 TECHNIK-stavba a bývanie s.r.o. 47531711 chemopren, klince 41,85 50,22 9797
731 8.6.15 KROSIT s.r.o. 29354102 pc stôl CZK 135,72 CZK 135,72  
732 9.6.15 JF, spol. s.r.o 36620009 školenie - práce vo výškach 465,00 558,00  
733 9.6.15 OKTE, a.s. 45687862 prevádzkovanie systému 43325,76 51990,91 9499
734 9.6.15 OKTE, a.s. 45687862 systémové služby 15289,11 18346,93 9499
735 9.6.15 JUDr. Anna Poničanová, advokátka 17061075 právne služby 240,09 288,11 9743
736 9.6.15 Igor Ďuriš Iglass 10925961 zasklievanie 157,20 157,20 9787
737 9.6.15 Weron s.r.o. 36026751 upratovanie - služby 1429,76 1715,71 9463
738 10.6.15 SSE, a.s. 36403008 G-komponent VN 13082,31 15698,77  
739 10.6.15 SSE, a.s. 36403008 G-komponent VVN 11776,80 14132,16  
740 10.6.15 Slovak Telekom, a.s. 35763469 hovory 301,70 362,04  
741 10.6.15 GX Solutions, a.s. 45232270 servis 58,10 69,72 9482
742 10.6.15 D.K.C., s.r.o. 31571727 nafta 1845,05 2214,06 9793
743 10.6.15 Ján Hronček 41140125 krovinorez 725,00 870,00 9822
744 11.6.15 KLEMO , spol. s.r.o. 36049051 vlajka firemná 248,00 297,60 9703
745 11.6.15 TBG Doprastav, a.s. 36283801 betón 172,81 207,37 9734
746 11.6.15 SSE, a.s. 36403008 IT prenájom 570,96 685,15  
747 11.6.15 TEMPRA , s.r.o. 31639607 kontrola železničnej vlečky 150,00 180,00 9672
748 11.6.15 OKTE, a.s. 45687862 odchýlky 62,71 75,25  
749 11.6.15 TECHNIK-stavba a bývanie s.r.o. 47531711 reťaz 133,43 160,12 9812
750 12.6.15 TEMPO KONDELA  s.r.o. 36409154 nábytok 130,83 157,00 9814
751 12.6.15 SABKO s.r.o. 44493002 tesnenie 125,00 150,00 9809
752 12.6.15 ZVARMAT s.r.o. 36622567 zvárací materiál 238,53 286,24 9834
753 12.6.15 ROEXIM s.r.o. 46472878 matice 189,40 227,28 9803
754 12.6.15 SEPS, a.s. 35829141 zmluvná pokuta 711,25 711,25  
755 12.6.15 Unicarback, s.r.o. 46643206 kosenie plôch 1846,17 2215,40 9675
756 12.6.15 ŽS Cargo Slovakia a.s. 35914921 vlečka 1456,00 1747,20 9702
757 12.6.15 Linde Gas k.s 31373861 kyslík a plyn 121,25 145,50 9457
758 12.6.15 SABKO s.r.o. 44493002 kreslá kancelárske 215,00 258,00 9809
759 15.6.15 Xepap, spol. s.r.o. 31628605 kancelárske potreby 10,30 12,36 9825
760 15.6.15 Karel Holoubek - Trade Group 25060996 uhlie 72488,84 86986,61 9828
761 15.6.15 Karel Holoubek - Trade Group 25060996 uhlie 104271,43 104271,43 9702
762 15.6.15 PPA inžiniering, s.r.o. 31376045 kontrola riadenia 1785,00 2142,00 9494
763 15.6.15 Štefan Francisty 32000057 plošina 146,00 175,20 9811
764 15.6.15 ČEZ Slovensko, a.s. 36797332 plyn 23924,10 28708,92  
765 15.6.15 SEPO spol. s.r.o. 31605931 revízia 1283,00 1539,60 9776
766 15.6.15 Drucker, s.r.o. 44925417 servis tlačiarne 57,00 68,40 9784
767 15.6.15 Železnice SR 31364501 ee 8,35 10,02  
768 15.6.15 Sféra, a.s. 35757736 certifikát 65,00 78,00 9823
769 15.6.15 fittich s.r.o. 46849891 kontrola EPS 50,00 60,00 9447
770 15.6.15 IMET-AKE, s.r.o. 31341870 ložisko 13,58 16,30 9819
771 15.6.15 OKTE, a.s. 45687862 odchýlky 1652,41 1982,89  
772 16.6.15 TECHNIK-stavba a bývanie s.r.o. 47531711 cement 172,37 206,84 9831
773 16.6.15 Chéque Déjeuner 31396674 stravné l ístky 6772,39 6785,67  
774 17.6.15 ABB, s.r.o. 31389325 oprava meniča 4227,00 5072,40 9718
775 17.6.15 D.K.C., s.r.o. 31571727 nafta 569,39 683,27 9793
776 17.6.15 PORADCA s.r.o. 36371271 Poradca 2016 49,00 58,80  
777 17.6.15 TECHNIK-stavba a bývanie s.r.o. 47531711 dobropis -45,00 -54,00 9644
778 17.6.15 Drucker, s.r.o. 44925417 tonery 598,90 718,68 9827
779 18.6.15 JF, spol. s.r.o 36620009 školenie 420,00 504,00  
780 18.6.15. VUJE, a.s. 31450474 výcvik manipulantov 3783,28 4537,30  
781 18.6.15 GX Solutions, a.s. 45232270 diagnostika 127,66 153,19  
782 18.6.15 GX Solutions, a.s. 45232270 diagnostika 22,56 27,07  
783 18.6.15 G.P.S Zvolen spol. s r.o. 36639231 zameranie 1560,00 1872,00 9476
784 18.6.15 Eurosteel, spol. s.r.o 36057819 plechy 155,85 187,02 9808
785 18.6.15 TECHNIK-stavba a bývanie s.r.o. 47531711 materiál 109,10 131,10 9847
786 18.6.15 Beličková, s.r.o. 45902836 materiál 193,21 231,85 9796
787 19.6.15 Filip Finďo - AUTOSLUŽBY 37057286 autoservis 896,12 1075,34 9837
788 19.6.15 SABKO s.r.o. 44493002 odpor 25,00 30,00 9849
789 18.6.15 Elevátor servis, s.r.o 36045641 servis výťahov 94,00 112,80 9469
790 19.6.15 TeSe, s.r.o. 47524006 sada potrubí 46,00 55,20 9836
791 19.6.15 ELENIT, s.r.o. 44559372 žalúzie - vrátnica 99,00 118,80 9686
792 19.6.15 TBG Doprastav, a.s. 36283801 beton 167,50 201,00 9734
793 19.6.15 TBG Doprastav, a.s. 36283801 beton 135,50 162,60 9734
794 19.6.15 Karel Holoubek - Trade Group 25060996 palivo 80634,71 96761,65 9828
795 19.6.15 AF -CAR s.r.o. 36399621 štiepka - vrátenie faktúry 0,00 0,00  
796 19.6.15 Duslo, a.s. 35826487 furmanite 5638,00 6765,60 9738
797 19.6.15 Duslo, a.s. 35826487 furmanite 624,00 748,80 9844
798 22.6.15 ŽS Cargo Slovakia a.s. 35914921 vlečka 676,00 811,20 9828
799 22.6.15 Energodata, spol. s.r.o. 30223806 nájomné 29185,43 35022,52 9565
800 22.6.15 A-Z lokomat s.r.o. 31617034 štiepka 86470,68 103764,82 9500
801 22.6.15 OMV, s.r.o. 604381 phm 366,28 439,54  
802 22.6.15 Svhp, š.p. 2204703 vodné Pribinova 817,69 981,23  
803 22.6.15 Čas Energo Plus, s.r.o. 36034207 drevné štiepky 72066,90 86480,28 9501
804 22.6.15 OSKO.a,s. 36044717 zdroje 88,55 106,26 9845
805 22.6.15 IMET-AKE, s.r.o. 31341870 ložisko 54,96 65,95 9854
806 23.6.15 Elmark Plus, s.r.o. 46331662 profylaktická prehliadka 1137,00 1364,40 9782
807 24.6.15 BVH. Spol, s.r.o. 35674148 oop 326,04 391,25 9807
808 24.6.15 Decon spol. s r.o. 30224349 výmenník 1590,00 1908,00 9788
809 24.6.15 SPX, s.r.o. 36427012 poplatok  780,00 936,00  
810 24.6.15 FIRE CENTER s.r.o. 47364335 seminár 42,00 42,00  
811 24.6.15 ENERGOTEL, a.s. 35785217 profylaxia ústredne 418,64 502,37 9747
812 24.6.15 Beata Dolincova - 34625364 angličtina 120,00 120,00  
813 25.6.15 REMOS Zvolen, s.r.o 36032506 zemné práce 1998,84 2398,61 9435
814 25.6.15 REMOS Zvolen, s.r.o 36032506 zemné práce 2665,00 3198,00 9435
815 25.6.15 MaR Trade, s.r.o 36437743 termoel. Snímač 192,00 230,40 9759
816 26.6.15 Ekoposs - Haraj 11875321 poradenstvo 398,34 478,01  
817 26.6.15 WITTEX plus, s.r.o 36231720 tesnenia 15,90 19,08 9820
818 26.6.15 PORADCA s.r.o. 36371271 pracovné právo 78,05 93,66  
819 26.6.15 Agri - Sevis, s.r.o. 36849685 servis 961,10 1153,32 9826
820 29.6.15 INSPECTA - Ing. O. Paprčka 40242153 odborné prehliadky 430,00 430,00 9677
821 29.6.15 MIKRO- TRADE, s.r.o. 31421342 prehliadka K0 2 437,50 525,00 9857
822 29.6.15 NCH SLOVAKIA s.r.o. 34096043 artax 1139,02 1366,82 9674
823 29.6.15 Montáže Čakovice 31375111 funkčné skúšky ochrán 4469,56 5363,47 9764
824 29.6.15 Unicarback, s.r.o. 46643206 kosenie plôch 2110,76 2532,91 9805
825 29.6.15 INOVATION Slovakia s.r.o. 31701892 multispray 129,00 154,80 9871
826 29.6.15 Slovwood Ružomberok , a.s 36406317 biomasa 28613,57 34336,28 9503
827 29.6.15 Linde Gas k.s 31373861 kyslík a plyn 32,94 39,53 9457
828 29.6.15 Ing. Radek Godora HSQ Team 37700898 olej 36,25 43,50 9879
829 29.6.15 TENIX s.r.o. 45455163 polymer 90,00 108,00 9870
830 30.6.15 MURDAX. s.r.o. 46019219 pranie 18,70 18,70 9750
831 30.6.15 STAVIVA - Garaj, s.r.o. 31592872 rúry ocelové 301,53 361,84 9786